sensor_id;sensor_type;location;lat;lon;timestamp;P1;durP1;ratioP1;P2;durP2;ratioP2
63959;SDS011;50136;51.374;0.096;2022-08-04T00:06:55;3.83;;;1.93;;
63959;SDS011;50136;51.374;0.096;2022-08-04T00:17:05;4.55;;;2.95;;
63959;SDS011;50136;51.374;0.096;2022-08-04T00:27:08;7.40;;;2.20;;
63959;SDS011;50136;51.374;0.096;2022-08-04T00:37:12;8.80;;;1.90;;
63959;SDS011;50136;51.374;0.096;2022-08-04T00:47:18;4.28;;;2.08;;
63959;SDS011;50136;51.374;0.096;2022-08-04T00:57:39;3.75;;;1.80;;
63959;SDS011;50136;51.374;0.096;2022-08-04T01:08:07;4.75;;;2.13;;
63959;SDS011;50136;51.374;0.096;2022-08-04T01:18:24;4.40;;;1.77;;
63959;SDS011;50136;51.374;0.096;2022-08-04T01:28:35;5.35;;;2.05;;
63959;SDS011;50136;51.374;0.096;2022-08-04T01:38:51;8.32;;;2.33;;
63959;SDS011;50136;51.374;0.096;2022-08-04T01:48:54;5.15;;;1.75;;
63959;SDS011;50136;51.374;0.096;2022-08-04T01:58:59;4.45;;;1.80;;
63959;SDS011;50136;51.374;0.096;2022-08-04T02:09:06;6.32;;;2.00;;
63959;SDS011;50136;51.374;0.096;2022-08-04T02:19:16;5.25;;;1.60;;
63959;SDS011;50136;51.374;0.096;2022-08-04T02:29:32;5.47;;;2.10;;
63959;SDS011;50136;51.374;0.096;2022-08-04T02:39:38;4.38;;;2.50;;
63959;SDS011;50136;51.374;0.096;2022-08-04T02:49:50;4.70;;;2.25;;
63959;SDS011;50136;51.374;0.096;2022-08-04T02:59:59;5.55;;;2.55;;
63959;SDS011;50136;51.374;0.096;2022-08-04T03:20:51;7.22;;;1.80;;
63959;SDS011;50136;51.374;0.096;2022-08-04T03:31:21;9.07;;;1.90;;
63959;SDS011;50136;51.374;0.096;2022-08-04T03:41:55;6.90;;;1.95;;
63959;SDS011;50136;51.374;0.096;2022-08-04T03:52:23;4.90;;;2.13;;
63959;SDS011;50136;51.374;0.096;2022-08-04T04:03:10;10.23;;;2.22;;
63959;SDS011;50136;51.374;0.096;2022-08-04T04:24:25;8.85;;;2.88;;
63959;SDS011;50136;51.374;0.096;2022-08-04T04:34:44;7.30;;;2.40;;
63959;SDS011;50136;51.374;0.096;2022-08-04T04:45:20;6.80;;;2.83;;
63959;SDS011;50136;51.374;0.096;2022-08-04T04:55:26;9.82;;;3.78;;
63959;SDS011;50136;51.374;0.096;2022-08-04T05:05:52;8.73;;;2.72;;
63959;SDS011;50136;51.374;0.096;2022-08-04T05:16:08;7.57;;;3.15;;
63959;SDS011;50136;51.374;0.096;2022-08-04T05:26:17;10.13;;;3.83;;
63959;SDS011;50136;51.374;0.096;2022-08-04T05:36:29;10.50;;;2.97;;
63959;SDS011;50136;51.374;0.096;2022-08-04T05:46:43;8.93;;;2.30;;
63959;SDS011;50136;51.374;0.096;2022-08-04T05:56:54;25.25;;;4.70;;
63959;SDS011;50136;51.374;0.096;2022-08-04T06:06:59;5.80;;;2.13;;
63959;SDS011;50136;51.374;0.096;2022-08-04T06:17:02;9.10;;;2.55;;
63959;SDS011;50136;51.374;0.096;2022-08-04T06:27:28;13.80;;;2.33;;
63959;SDS011;50136;51.374;0.096;2022-08-04T06:37:31;8.30;;;2.50;;
63959;SDS011;50136;51.374;0.096;2022-08-04T06:47:47;19.48;;;2.72;;
63959;SDS011;50136;51.374;0.096;2022-08-04T06:57:50;22.95;;;2.50;;
63959;SDS011;50136;51.374;0.096;2022-08-04T07:07:54;7.63;;;2.30;;
63959;SDS011;50136;51.374;0.096;2022-08-04T07:17:59;8.38;;;3.05;;
63959;SDS011;50136;51.374;0.096;2022-08-04T07:28:02;10.68;;;2.45;;
63959;SDS011;50136;51.374;0.096;2022-08-04T07:38:04;21.23;;;3.10;;
63959;SDS011;50136;51.374;0.096;2022-08-04T07:48:11;7.20;;;2.35;;
63959;SDS011;50136;51.374;0.096;2022-08-04T07:58:13;7.97;;;2.47;;
63959;SDS011;50136;51.374;0.096;2022-08-04T08:08:16;10.43;;;2.20;;
63959;SDS011;50136;51.374;0.096;2022-08-04T08:18:18;6.60;;;2.53;;
63959;SDS011;50136;51.374;0.096;2022-08-04T08:28:22;10.73;;;2.20;;
63959;SDS011;50136;51.374;0.096;2022-08-04T08:38:27;7.60;;;2.40;;
63959;SDS011;50136;51.374;0.096;2022-08-04T08:48:53;7.88;;;2.85;;
63959;SDS011;50136;51.374;0.096;2022-08-04T08:59:42;6.32;;;2.10;;
63959;SDS011;50136;51.374;0.096;2022-08-04T09:10:08;4.72;;;2.00;;
63959;SDS011;50136;51.374;0.096;2022-08-04T09:20:15;6.80;;;2.63;;
63959;SDS011;50136;51.374;0.096;2022-08-04T09:30:26;7.85;;;2.05;;
63959;SDS011;50136;51.374;0.096;2022-08-04T09:40:33;6.20;;;2.55;;
63959;SDS011;50136;51.374;0.096;2022-08-04T09:50:59;14.70;;;3.38;;
63959;SDS011;50136;51.374;0.096;2022-08-04T10:01:12;5.13;;;1.60;;
63959;SDS011;50136;51.374;0.096;2022-08-04T10:11:38;5.10;;;2.05;;
63959;SDS011;50136;51.374;0.096;2022-08-04T10:22:04;3.28;;;1.52;;
63959;SDS011;50136;51.374;0.096;2022-08-04T10:32:33;6.43;;;1.63;;
63959;SDS011;50136;51.374;0.096;2022-08-04T10:42:45;5.22;;;1.80;;
63959;SDS011;50136;51.374;0.096;2022-08-04T10:53:02;6.20;;;1.65;;
63959;SDS011;50136;51.374;0.096;2022-08-04T11:03:12;4.63;;;1.65;;
63959;SDS011;50136;51.374;0.096;2022-08-04T11:13:21;6.50;;;1.70;;
63959;SDS011;50136;51.374;0.096;2022-08-04T11:23:32;7.25;;;1.67;;
63959;SDS011;50136;51.374;0.096;2022-08-04T11:33:42;4.57;;;1.90;;
63959;SDS011;50136;51.374;0.096;2022-08-04T11:43:50;4.32;;;1.80;;
63959;SDS011;50136;51.374;0.096;2022-08-04T11:54:05;35.50;;;3.35;;
63959;SDS011;50136;51.374;0.096;2022-08-04T12:04:10;27.38;;;4.00;;
63959;SDS011;50136;51.374;0.096;2022-08-04T12:14:25;13.38;;;1.85;;
63959;SDS011;50136;51.374;0.096;2022-08-04T12:24:32;4.05;;;1.75;;
63959;SDS011;50136;51.374;0.096;2022-08-04T12:34:39;3.35;;;1.40;;
63959;SDS011;50136;51.374;0.096;2022-08-04T12:44:46;9.18;;;1.45;;
63959;SDS011;50136;51.374;0.096;2022-08-04T12:54:53;11.20;;;1.60;;
63959;SDS011;50136;51.374;0.096;2022-08-04T13:04:57;5.93;;;1.60;;
63959;SDS011;50136;51.374;0.096;2022-08-04T13:15:07;3.95;;;1.52;;
63959;SDS011;50136;51.374;0.096;2022-08-04T13:25:18;10.15;;;1.70;;
63959;SDS011;50136;51.374;0.096;2022-08-04T13:35:43;2.70;;;1.10;;
63959;SDS011;50136;51.374;0.096;2022-08-04T13:45:57;4.80;;;1.30;;
63959;SDS011;50136;51.374;0.096;2022-08-04T13:56:04;4.32;;;1.95;;
63959;SDS011;50136;51.374;0.096;2022-08-04T14:16:18;6.07;;;1.42;;
63959;SDS011;50136;51.374;0.096;2022-08-04T14:26:22;5.53;;;1.55;;
63959;SDS011;50136;51.374;0.096;2022-08-04T14:36:41;3.35;;;1.35;;
63959;SDS011;50136;51.374;0.096;2022-08-04T14:47:04;5.32;;;1.40;;
63959;SDS011;50136;51.374;0.096;2022-08-04T14:57:15;3.22;;;1.60;;
63959;SDS011;50136;51.374;0.096;2022-08-04T15:07:17;3.80;;;1.23;;
63959;SDS011;50136;51.374;0.096;2022-08-04T15:17:20;4.32;;;1.33;;
63959;SDS011;50136;51.374;0.096;2022-08-04T15:27:31;6.55;;;1.65;;
63959;SDS011;50136;51.374;0.096;2022-08-04T15:37:45;4.07;;;1.73;;
63959;SDS011;50136;51.374;0.096;2022-08-04T15:58:46;7.63;;;1.58;;
63959;SDS011;50136;51.374;0.096;2022-08-04T16:08:56;1.83;;;1.33;;
63959;SDS011;50136;51.374;0.096;2022-08-04T16:19:04;4.13;;;1.27;;
63959;SDS011;50136;51.374;0.096;2022-08-04T16:39:25;1.80;;;1.00;;
63959;SDS011;50136;51.374;0.096;2022-08-04T16:49:27;3.38;;;1.15;;
63959;SDS011;50136;51.374;0.096;2022-08-04T16:59:32;7.28;;;1.38;;
63959;SDS011;50136;51.374;0.096;2022-08-04T17:09:34;4.60;;;0.98;;
63959;SDS011;50136;51.374;0.096;2022-08-04T17:19:38;2.63;;;1.15;;
63959;SDS011;50136;51.374;0.096;2022-08-04T17:29:51;5.10;;;1.20;;
63959;SDS011;50136;51.374;0.096;2022-08-04T17:50:26;4.35;;;1.90;;
63959;SDS011;50136;51.374;0.096;2022-08-04T18:00:34;6.05;;;1.40;;
63959;SDS011;50136;51.374;0.096;2022-08-04T18:10:41;2.88;;;1.30;;
63959;SDS011;50136;51.374;0.096;2022-08-04T18:20:58;2.40;;;1.08;;
63959;SDS011;50136;51.374;0.096;2022-08-04T18:31:04;4.72;;;1.17;;
63959;SDS011;50136;51.374;0.096;2022-08-04T18:41:09;3.95;;;1.50;;
63959;SDS011;50136;51.374;0.096;2022-08-04T18:51:12;3.50;;;1.35;;
63959;SDS011;50136;51.374;0.096;2022-08-04T19:01:25;6.68;;;1.95;;
63959;SDS011;50136;51.374;0.096;2022-08-04T19:11:47;4.07;;;2.28;;
63959;SDS011;50136;51.374;0.096;2022-08-04T19:21:57;3.13;;;1.70;;
63959;SDS011;50136;51.374;0.096;2022-08-04T19:32:07;7.05;;;1.88;;
63959;SDS011;50136;51.374;0.096;2022-08-04T19:42:31;3.90;;;1.45;;
63959;SDS011;50136;51.374;0.096;2022-08-04T19:52:33;4.25;;;1.20;;
63959;SDS011;50136;51.374;0.096;2022-08-04T20:02:37;2.10;;;1.00;;
63959;SDS011;50136;51.374;0.096;2022-08-04T20:12:42;5.88;;;1.30;;
63959;SDS011;50136;51.374;0.096;2022-08-04T20:22:57;7.03;;;1.42;;
63959;SDS011;50136;51.374;0.096;2022-08-04T20:32:59;2.03;;;1.20;;
63959;SDS011;50136;51.374;0.096;2022-08-04T20:43:18;5.28;;;1.30;;
63959;SDS011;50136;51.374;0.096;2022-08-04T20:53:20;3.20;;;1.45;;
63959;SDS011;50136;51.374;0.096;2022-08-04T21:03:44;4.18;;;1.90;;
63959;SDS011;50136;51.374;0.096;2022-08-04T21:14:06;3.65;;;1.02;;
63959;SDS011;50136;51.374;0.096;2022-08-04T21:24:13;5.72;;;0.98;;
63959;SDS011;50136;51.374;0.096;2022-08-04T21:34:15;3.40;;;1.10;;
63959;SDS011;50136;51.374;0.096;2022-08-04T21:44:39;2.50;;;0.90;;
63959;SDS011;50136;51.374;0.096;2022-08-04T21:54:42;3.88;;;1.20;;
63959;SDS011;50136;51.374;0.096;2022-08-04T22:04:46;2.97;;;1.17;;
63959;SDS011;50136;51.374;0.096;2022-08-04T22:14:48;3.83;;;1.00;;
63959;SDS011;50136;51.374;0.096;2022-08-04T22:25:02;2.35;;;0.93;;
63959;SDS011;50136;51.374;0.096;2022-08-04T22:35:14;3.58;;;1.10;;
63959;SDS011;50136;51.374;0.096;2022-08-04T22:45:42;9.70;;;1.83;;
63959;SDS011;50136;51.374;0.096;2022-08-04T22:55:45;4.67;;;1.37;;
63959;SDS011;50136;51.374;0.096;2022-08-04T23:06:09;5.20;;;0.90;;
63959;SDS011;50136;51.374;0.096;2022-08-04T23:16:12;3.35;;;1.20;;
63959;SDS011;50136;51.374;0.096;2022-08-04T23:26:15;7.65;;;1.30;;
63959;SDS011;50136;51.374;0.096;2022-08-04T23:36:18;4.93;;;1.23;;
63959;SDS011;50136;51.374;0.096;2022-08-04T23:46:32;6.00;;;1.80;;
63959;SDS011;50136;51.374;0.096;2022-08-04T23:56:35;3.38;;;1.20;;
